createdAt,value
2017-09-09T00:00:03.651Z,14.40
2017-09-09T00:02:30.416Z,17.30
2017-09-09T00:04:57.228Z,16.77
2017-09-09T00:07:23.974Z,16.07
2017-09-09T00:09:50.738Z,15.80
2017-09-09T00:12:17.538Z,17.20
2017-09-09T00:14:44.298Z,15.00
2017-09-09T00:17:11.044Z,15.70
2017-09-09T00:19:37.855Z,17.90
2017-09-09T00:22:04.623Z,12.60
2017-09-09T00:24:31.374Z,12.67
2017-09-09T00:26:58.265Z,14.73
2017-09-09T00:29:25.011Z,12.70
2017-09-09T00:31:51.797Z,13.47
2017-09-09T00:34:18.633Z,14.17
2017-09-09T00:36:45.394Z,11.13
2017-09-09T00:39:12.156Z,11.80
2017-09-09T00:41:38.955Z,15.80
2017-09-09T00:44:05.716Z,13.97
2017-09-09T00:46:32.462Z,10.93
2017-09-09T00:48:59.274Z,10.00
2017-09-09T00:51:26.074Z,11.50
2017-09-09T00:53:52.898Z,12.77
2017-09-09T00:56:19.722Z,12.47
2017-09-09T00:58:46.495Z,12.17
2017-09-09T01:01:13.286Z,9.53
2017-09-09T01:03:40.106Z,14.53
2017-09-09T01:06:06.864Z,12.47
2017-09-09T01:08:33.620Z,12.13
2017-09-09T01:11:00.427Z,11.47
2017-09-09T01:13:27.196Z,11.97
2017-09-09T01:15:53.971Z,16.73
2017-09-09T01:18:20.759Z,12.17
2017-09-09T01:20:47.542Z,13.90
2017-09-09T01:23:14.329Z,15.47
2017-09-09T01:25:41.135Z,10.70
2017-09-09T01:28:07.894Z,15.20
2017-09-09T01:30:34.663Z,13.47
2017-09-09T01:33:01.459Z,13.00
2017-09-09T01:35:28.222Z,12.17
2017-09-09T01:37:54.992Z,12.57
2017-09-09T01:40:21.786Z,12.07
2017-09-09T01:42:48.542Z,15.77
2017-09-09T01:45:15.284Z,10.53
2017-09-09T01:47:42.072Z,15.50
2017-09-09T01:50:08.823Z,12.70
2017-09-09T01:52:35.564Z,12.97
2017-09-09T01:55:02.356Z,13.03
2017-09-09T01:57:29.110Z,13.50
2017-09-09T01:59:55.881Z,16.50
2017-09-09T02:02:22.720Z,13.83
2017-09-09T02:04:49.486Z,14.00
2017-09-09T02:07:16.270Z,16.80
2017-09-09T02:09:43.062Z,14.63
2017-09-09T02:12:09.800Z,15.97
2017-09-09T02:14:36.551Z,12.80
2017-09-09T02:17:03.452Z,14.47
2017-09-09T02:19:30.224Z,14.87
2017-09-09T02:21:56.967Z,13.47
2017-09-09T02:24:23.748Z,14.53
2017-09-09T02:26:50.517Z,13.60
2017-09-09T02:29:17.262Z,12.70
2017-09-09T02:31:44.048Z,22.90
2017-09-09T02:34:10.809Z,16.20
2017-09-09T02:36:37.568Z,15.00
2017-09-09T02:39:04.406Z,14.37
2017-09-09T02:41:31.173Z,14.33
2017-09-09T02:43:57.932Z,16.30
2017-09-09T02:46:24.724Z,16.60
2017-09-09T02:48:51.485Z,15.23
2017-09-09T02:51:18.253Z,20.80
2017-09-09T02:53:45.035Z,16.53
2017-09-09T02:56:11.779Z,18.57
2017-09-09T02:58:38.566Z,13.97
2017-09-09T03:01:05.345Z,15.40
2017-09-09T03:03:32.105Z,13.63
2017-09-09T03:05:58.869Z,12.57
2017-09-09T03:08:25.670Z,13.90
2017-09-09T03:10:52.412Z,15.70
2017-09-09T03:13:19.163Z,15.10
2017-09-09T03:15:45.964Z,13.87
2017-09-09T03:18:12.735Z,16.03
2017-09-09T03:20:39.490Z,14.70
2017-09-09T03:23:06.277Z,12.50
2017-09-09T03:25:33.025Z,11.07
2017-09-09T03:27:59.763Z,13.17
2017-09-09T03:30:26.574Z,17.40
2017-09-09T03:32:53.345Z,11.40
2017-09-09T03:35:20.117Z,10.80
2017-09-09T03:37:46.895Z,12.20
2017-09-09T03:40:13.639Z,25.00
2017-09-09T03:42:40.385Z,14.60
2017-09-09T03:45:07.181Z,11.73
2017-09-09T03:47:33.928Z,14.17
2017-09-09T03:50:00.690Z,14.43
2017-09-09T03:52:27.551Z,14.87
2017-09-09T03:54:54.321Z,13.63
2017-09-09T03:57:21.072Z,14.10
2017-09-09T03:59:47.867Z,14.03
2017-09-09T04:02:14.631Z,15.43
2017-09-09T04:04:41.394Z,14.70
2017-09-09T04:07:08.177Z,19.33
2017-09-09T04:09:34.918Z,16.87
2017-09-09T04:12:01.680Z,17.50
2017-09-09T04:14:28.472Z,20.37
2017-09-09T04:16:55.227Z,15.27
2017-09-09T04:19:21.977Z,16.10
2017-09-09T04:21:48.781Z,14.70
2017-09-09T04:24:15.527Z,18.07
2017-09-09T04:26:42.295Z,13.93
2017-09-09T04:29:09.102Z,20.20
2017-09-09T04:31:35.838Z,17.00
2017-09-09T04:34:02.580Z,16.00
2017-09-09T04:36:29.363Z,16.40
2017-09-09T04:38:56.107Z,18.63
2017-09-09T04:41:22.855Z,22.00
2017-09-09T04:43:49.658Z,23.60
2017-09-09T04:46:16.462Z,19.10
2017-09-09T04:48:43.203Z,21.23
2017-09-09T04:51:09.997Z,18.53
2017-09-09T04:53:36.763Z,19.47
2017-09-09T04:56:03.508Z,19.10
2017-09-09T04:58:30.314Z,18.20
2017-09-09T05:00:57.058Z,18.13
2017-09-09T05:03:23.834Z,20.27
2017-09-09T05:05:50.624Z,18.57
2017-09-09T05:08:17.373Z,17.73
2017-09-09T05:10:44.134Z,24.47
2017-09-09T05:13:10.933Z,18.83
2017-09-09T05:15:37.683Z,19.07
2017-09-09T05:18:04.458Z,21.90
2017-09-09T05:20:31.243Z,18.83
2017-09-09T05:22:58.026Z,19.73
2017-09-09T05:25:24.796Z,20.50
2017-09-09T05:27:51.583Z,18.90
2017-09-09T05:30:18.354Z,17.30
2017-09-09T05:32:45.108Z,24.73
2017-09-09T05:35:11.895Z,19.37
2017-09-09T05:37:38.728Z,18.30
2017-09-09T05:40:05.526Z,19.07
2017-09-09T05:42:32.375Z,18.33
2017-09-09T05:44:59.142Z,17.53
2017-09-09T05:47:25.893Z,17.80
2017-09-09T05:49:52.738Z,17.70
2017-09-09T05:52:19.536Z,15.90
2017-09-09T05:54:46.306Z,16.30
2017-09-09T05:57:13.126Z,16.53
2017-09-09T05:59:39.868Z,21.33
2017-09-09T06:02:06.647Z,18.07
2017-09-09T06:04:33.449Z,18.57
2017-09-09T06:07:00.183Z,19.33
2017-09-09T06:09:26.945Z,14.90
2017-09-09T06:11:53.762Z,15.20
2017-09-09T06:14:20.516Z,14.57
2017-09-09T06:16:47.292Z,16.47
2017-09-09T06:19:14.098Z,13.33
2017-09-09T06:21:40.879Z,14.90
2017-09-09T06:24:07.642Z,12.63
2017-09-09T06:26:34.439Z,11.00
2017-09-09T06:29:01.219Z,10.63
2017-09-09T06:31:27.995Z,12.90
2017-09-09T06:33:54.806Z,10.20
2017-09-09T06:36:21.590Z,12.47
2017-09-09T06:38:48.350Z,10.07
2017-09-09T06:41:15.131Z,9.33
2017-09-09T06:43:41.882Z,8.27
2017-09-09T06:46:08.627Z,7.67
2017-09-09T06:48:35.448Z,7.80
2017-09-09T06:51:02.231Z,6.10
2017-09-09T06:53:28.987Z,8.00
2017-09-09T06:55:55.770Z,10.27
2017-09-09T06:58:22.527Z,5.40
2017-09-09T07:00:49.285Z,5.50
2017-09-09T07:03:16.151Z,6.70
2017-09-09T07:05:42.904Z,7.90
2017-09-09T07:08:09.686Z,6.43
2017-09-09T07:10:36.523Z,7.67
2017-09-09T07:13:03.387Z,5.80
2017-09-09T07:15:30.170Z,5.90
2017-09-09T07:17:56.944Z,7.90
2017-09-09T07:20:23.695Z,6.83
2017-09-09T07:22:50.511Z,9.00
2017-09-09T07:25:17.326Z,8.80
2017-09-09T07:27:44.069Z,9.37
2017-09-09T07:30:10.818Z,9.27
2017-09-09T07:32:37.607Z,8.60
2017-09-09T07:35:04.365Z,8.93
2017-09-09T07:37:31.115Z,15.43
2017-09-09T07:39:57.919Z,14.20
2017-09-09T07:42:24.675Z,33.53
2017-09-09T07:44:51.551Z,12.47
2017-09-09T07:47:18.350Z,16.73
2017-09-09T07:49:45.100Z,12.33
2017-09-09T07:52:11.840Z,11.70
2017-09-09T07:54:38.639Z,14.13
2017-09-09T07:57:05.387Z,12.97
2017-09-09T07:59:32.128Z,18.93
2017-09-09T08:01:58.915Z,15.47
2017-09-09T08:04:25.686Z,17.67
2017-09-09T08:06:52.450Z,15.03
2017-09-09T08:09:19.328Z,15.97
2017-09-09T08:11:46.108Z,15.47
2017-09-09T08:14:12.875Z,14.90
2017-09-09T08:16:39.669Z,16.40
2017-09-09T08:19:06.440Z,17.07
2017-09-09T08:21:33.191Z,18.13
2017-09-09T08:24:00.004Z,14.40
2017-09-09T08:26:26.773Z,17.67
2017-09-09T08:28:53.539Z,14.60
2017-09-09T08:31:20.348Z,15.20
2017-09-09T08:33:47.126Z,17.60
2017-09-09T08:36:13.889Z,16.10
2017-09-09T08:38:40.667Z,16.50
2017-09-09T08:41:07.411Z,17.80
2017-09-09T08:43:34.174Z,17.40
2017-09-09T08:46:00.995Z,17.77
2017-09-09T08:48:27.743Z,18.67
2017-09-09T08:50:54.530Z,15.97
2017-09-09T08:53:21.312Z,14.70
2017-09-09T08:55:48.086Z,17.73
2017-09-09T08:58:14.864Z,16.93
2017-09-09T09:00:41.669Z,16.30
2017-09-09T09:03:08.558Z,16.50
2017-09-09T09:05:35.311Z,18.20
2017-09-09T09:08:02.098Z,21.23
2017-09-09T09:10:28.862Z,20.83
2017-09-09T09:12:55.636Z,19.07
2017-09-09T09:15:22.447Z,18.43
2017-09-09T09:17:49.229Z,20.47
2017-09-09T09:20:15.998Z,18.17
2017-09-09T09:22:42.780Z,20.90
2017-09-09T09:25:09.527Z,19.70
2017-09-09T09:27:36.308Z,22.80
2017-09-09T09:30:03.096Z,20.87
2017-09-09T09:32:29.863Z,23.80
2017-09-09T09:34:56.626Z,21.80
2017-09-09T09:37:23.429Z,19.80
2017-09-09T09:39:50.194Z,21.30
2017-09-09T09:42:16.990Z,21.07
2017-09-09T09:44:43.806Z,18.87
2017-09-09T09:47:10.554Z,19.00
2017-09-09T09:49:37.300Z,17.57
2017-09-09T09:52:04.083Z,17.30
2017-09-09T09:54:30.855Z,14.67
2017-09-09T09:56:57.634Z,15.30
2017-09-09T09:59:24.452Z,17.70
2017-09-09T10:01:51.228Z,17.03
2017-09-09T10:04:17.998Z,15.97
2017-09-09T10:06:44.812Z,17.83
2017-09-09T10:09:11.583Z,14.07
2017-09-09T10:11:38.337Z,15.10
2017-09-09T10:14:05.137Z,11.93
2017-09-09T10:16:31.887Z,13.70
2017-09-09T10:18:58.665Z,13.80
2017-09-09T10:21:25.619Z,13.30
2017-09-09T10:23:52.406Z,14.57
2017-09-09T10:26:19.195Z,15.10
2017-09-09T10:28:46.051Z,14.50
2017-09-09T10:31:12.830Z,13.03
2017-09-09T10:33:39.587Z,15.87
2017-09-09T10:36:06.367Z,15.63
2017-09-09T10:38:33.138Z,14.37
2017-09-09T10:40:59.911Z,13.00
2017-09-09T10:43:27.318Z,13.87
2017-09-09T10:45:54.077Z,16.07
2017-09-09T10:48:20.844Z,15.00
2017-09-09T10:50:47.643Z,14.57
2017-09-09T10:53:14.416Z,15.23
2017-09-09T10:55:41.192Z,21.83
2017-09-09T10:58:08.000Z,15.77
2017-09-09T11:00:34.765Z,14.37
2017-09-09T11:03:01.513Z,13.27
2017-09-09T11:05:28.291Z,14.77
2017-09-09T11:07:55.047Z,11.87
2017-09-09T11:10:21.791Z,12.77
2017-09-09T11:12:48.575Z,10.70
2017-09-09T11:15:15.321Z,10.23
2017-09-09T11:17:42.080Z,9.53
2017-09-09T11:20:08.871Z,14.27
2017-09-09T11:22:35.626Z,8.07
2017-09-09T11:25:02.390Z,7.43
2017-09-09T11:27:29.155Z,9.27
2017-09-09T11:29:55.918Z,10.20
2017-09-09T11:32:22.657Z,9.90
2017-09-09T11:34:49.449Z,13.13
2017-09-09T11:37:16.197Z,7.50
2017-09-09T11:39:42.944Z,7.77
2017-09-09T11:42:09.712Z,6.37
2017-09-09T11:44:36.447Z,6.90
2017-09-09T11:47:03.180Z,6.23
2017-09-09T11:49:29.955Z,7.77
2017-09-09T11:51:56.721Z,8.47
2017-09-09T11:54:23.460Z,5.60
2017-09-09T11:56:50.227Z,6.40
2017-09-09T11:59:16.986Z,7.00
2017-09-09T12:01:43.720Z,7.60
2017-09-09T12:04:10.495Z,5.47
2017-09-09T12:06:37.246Z,7.80
2017-09-09T12:09:04.062Z,6.40
2017-09-09T12:11:30.836Z,6.60
2017-09-09T12:13:57.586Z,7.40
2017-09-09T12:16:24.328Z,8.53
2017-09-09T12:18:51.103Z,8.47
2017-09-09T12:21:17.861Z,5.73
2017-09-09T12:23:44.614Z,7.77
2017-09-09T12:26:11.420Z,5.87
2017-09-09T12:28:38.431Z,8.57
2017-09-09T12:31:05.171Z,7.73
2017-09-09T12:33:31.966Z,6.03
2017-09-09T12:35:58.699Z,6.70
2017-09-09T12:38:25.443Z,7.03
2017-09-09T12:40:52.225Z,5.27
2017-09-09T12:43:18.979Z,3.70
2017-09-09T12:45:45.748Z,5.83
2017-09-09T12:48:12.538Z,6.77
2017-09-09T12:50:39.294Z,5.70
2017-09-09T12:53:06.025Z,5.37
2017-09-09T12:55:32.824Z,3.43
2017-09-09T12:57:59.564Z,7.00
2017-09-09T13:00:26.330Z,3.33
2017-09-09T13:02:53.107Z,3.70
2017-09-09T13:05:19.870Z,4.03
2017-09-09T13:07:46.616Z,7.83
2017-09-09T13:10:13.417Z,3.67
2017-09-09T13:12:40.173Z,5.20
2017-09-09T13:15:06.909Z,5.13
2017-09-09T13:17:33.722Z,4.43
2017-09-09T13:20:00.485Z,4.23
2017-09-09T13:22:27.249Z,5.60
2017-09-09T13:24:54.056Z,3.67
2017-09-09T13:27:20.815Z,4.00
2017-09-09T13:29:47.663Z,4.60
2017-09-09T13:32:14.477Z,3.60
2017-09-09T13:34:41.217Z,3.40
2017-09-09T13:37:07.970Z,4.60
2017-09-09T13:39:34.740Z,4.20
2017-09-09T13:42:01.548Z,3.63
2017-09-09T13:44:28.302Z,3.93
2017-09-09T13:46:55.099Z,3.70
2017-09-09T13:49:21.852Z,4.10
2017-09-09T13:51:48.605Z,3.50
2017-09-09T13:54:15.446Z,2.87
2017-09-09T13:56:42.202Z,5.73
2017-09-09T13:59:08.962Z,3.40
2017-09-09T14:01:35.738Z,3.17
2017-09-09T14:04:02.576Z,1.97
2017-09-09T14:06:29.344Z,1.80
2017-09-09T14:08:56.111Z,1.53
2017-09-09T14:11:22.866Z,1.47
2017-09-09T14:13:49.667Z,1.73
2017-09-09T14:16:16.485Z,1.97
2017-09-09T14:18:43.263Z,1.47
2017-09-09T14:21:10.022Z,1.70
2017-09-09T14:23:36.827Z,2.10
2017-09-09T14:26:03.607Z,1.20
2017-09-09T14:28:30.340Z,1.23
2017-09-09T14:30:57.163Z,1.50
2017-09-09T14:33:23.949Z,1.03
2017-09-09T14:35:50.827Z,1.03
2017-09-09T14:38:17.634Z,1.77
2017-09-09T14:40:44.402Z,2.07
2017-09-09T14:43:11.211Z,1.53
2017-09-09T14:45:38.008Z,2.03
2017-09-09T14:48:04.748Z,1.40
2017-09-09T14:50:32.374Z,1.23
2017-09-09T14:52:59.274Z,6.60
2017-09-09T14:55:26.034Z,1.60
2017-09-09T14:57:52.794Z,1.60
2017-09-09T15:00:19.590Z,1.60
2017-09-09T15:02:46.347Z,1.50
2017-09-09T15:05:13.124Z,1.53
2017-09-09T15:07:39.921Z,1.13
2017-09-09T15:10:06.770Z,1.57
2017-09-09T15:12:33.537Z,1.50
2017-09-09T15:15:00.332Z,2.10
2017-09-09T15:17:27.109Z,1.37
2017-09-09T15:19:53.874Z,2.77
2017-09-09T15:22:20.670Z,1.60
2017-09-09T15:24:47.427Z,2.13
2017-09-09T15:27:14.188Z,1.53
2017-09-09T15:29:40.965Z,1.70
2017-09-09T15:32:07.708Z,1.60
2017-09-09T15:34:34.487Z,1.70
2017-09-09T15:37:01.294Z,3.03
2017-09-09T15:39:28.077Z,1.70
2017-09-09T15:41:54.900Z,1.97
2017-09-09T15:44:21.710Z,2.50
2017-09-09T15:46:48.491Z,2.00
2017-09-09T15:49:15.264Z,2.70
2017-09-09T15:51:42.078Z,2.47
2017-09-09T15:54:08.836Z,2.40
2017-09-09T15:56:35.574Z,2.17
2017-09-09T15:59:02.363Z,2.20
2017-09-09T16:01:29.103Z,2.03
2017-09-09T16:03:55.878Z,3.00
2017-09-09T16:06:22.664Z,3.00
2017-09-09T16:08:49.438Z,4.07
2017-09-09T16:11:16.242Z,3.17
2017-09-09T16:13:43.078Z,3.87
2017-09-09T16:16:09.834Z,6.93
2017-09-09T16:18:36.594Z,2.63
2017-09-09T16:21:03.400Z,2.83
2017-09-09T16:23:30.160Z,3.00
2017-09-09T16:25:56.896Z,2.43
2017-09-09T16:28:23.681Z,2.30
2017-09-09T16:30:50.436Z,1.50
2017-09-09T16:33:17.171Z,1.70
2017-09-09T16:35:46.388Z,14.63
2017-09-09T16:38:13.148Z,2.23
2017-09-09T16:40:39.938Z,1.90
2017-09-09T16:43:06.772Z,2.80
2017-09-09T16:45:33.568Z,1.97
2017-09-09T16:48:00.326Z,2.53
2017-09-09T16:50:27.120Z,2.10
2017-09-09T16:52:53.878Z,2.47
2017-09-09T16:55:20.647Z,3.50
2017-09-09T16:57:47.476Z,2.00
2017-09-09T17:00:14.247Z,6.20
2017-09-09T17:02:41.012Z,3.40
2017-09-09T17:05:07.815Z,1.80
2017-09-09T17:07:34.574Z,1.70
2017-09-09T17:10:01.349Z,11.07
2017-09-09T17:12:28.154Z,3.00
2017-09-09T17:14:54.887Z,4.20
2017-09-09T17:17:21.687Z,3.20
2017-09-09T17:19:48.466Z,4.93
2017-09-09T17:22:15.232Z,2.83
2017-09-09T17:24:42.011Z,2.47
2017-09-09T17:27:08.802Z,4.27
2017-09-09T17:29:35.568Z,2.37
2017-09-09T17:32:02.311Z,2.20
2017-09-09T17:34:29.103Z,3.20
2017-09-09T17:36:55.908Z,2.37
2017-09-09T17:39:22.658Z,2.43
2017-09-09T17:41:49.435Z,2.13
2017-09-09T17:44:16.175Z,2.37
2017-09-09T17:46:42.933Z,2.90
2017-09-09T17:49:09.734Z,2.43
2017-09-09T17:51:36.494Z,2.43
2017-09-09T17:54:03.315Z,4.53
2017-09-09T17:56:30.115Z,7.30
2017-09-09T17:58:56.879Z,3.40
2017-09-09T18:01:23.650Z,2.30
2017-09-09T18:03:50.445Z,4.03
2017-09-09T18:06:17.214Z,4.20
2017-09-09T18:08:43.983Z,2.10
2017-09-09T18:11:10.780Z,3.30
2017-09-09T18:13:37.535Z,3.03
2017-09-09T18:16:04.323Z,4.67
2017-09-09T18:18:31.108Z,2.10
2017-09-09T18:20:57.879Z,7.00
2017-09-09T18:23:24.630Z,2.83
2017-09-09T18:25:51.427Z,2.33
2017-09-09T18:28:18.181Z,4.23
2017-09-09T18:30:44.952Z,4.60
2017-09-09T18:33:11.960Z,3.50
2017-09-09T18:35:38.712Z,2.57
2017-09-09T18:38:05.457Z,3.87
2017-09-09T18:40:32.249Z,3.17
2017-09-09T18:42:59.004Z,5.37
2017-09-09T18:45:25.744Z,2.67
2017-09-09T18:47:52.516Z,3.50
2017-09-09T18:50:19.270Z,3.40
2017-09-09T18:52:46.008Z,3.10
2017-09-09T18:55:12.805Z,3.30
2017-09-09T18:57:39.574Z,2.97
2017-09-09T19:00:06.326Z,5.40
2017-09-09T19:02:33.137Z,4.37
2017-09-09T19:04:59.902Z,3.60
2017-09-09T19:07:26.684Z,4.70
2017-09-09T19:09:53.514Z,4.13
2017-09-09T19:12:20.306Z,4.07
2017-09-09T19:14:47.058Z,2.90
2017-09-09T19:17:13.844Z,2.93
2017-09-09T19:19:40.603Z,2.70
2017-09-09T19:22:07.363Z,15.23
2017-09-09T19:24:34.160Z,5.60
2017-09-09T19:27:00.934Z,4.23
2017-09-09T19:29:27.676Z,2.90
2017-09-09T19:31:54.449Z,3.80
2017-09-09T19:34:21.221Z,2.80
2017-09-09T19:36:48.060Z,2.70
2017-09-09T19:39:14.859Z,4.80
2017-09-09T19:41:41.630Z,3.33
2017-09-09T19:44:08.401Z,4.80
2017-09-09T19:46:35.191Z,5.50
2017-09-09T19:49:01.939Z,7.27
2017-09-09T19:51:28.695Z,9.17
2017-09-09T19:53:55.494Z,5.20
2017-09-09T19:56:22.252Z,4.43
2017-09-09T19:58:49.039Z,5.93
2017-09-09T20:01:15.808Z,4.03
2017-09-09T20:03:42.566Z,4.30
2017-09-09T20:06:10.665Z,3.90
2017-09-09T20:08:37.545Z,4.87
2017-09-09T20:11:04.339Z,5.13
2017-09-09T20:13:31.100Z,5.60
2017-09-09T20:15:57.910Z,5.53
2017-09-09T20:18:24.697Z,5.17
2017-09-09T20:20:51.444Z,6.50
2017-09-09T20:23:18.247Z,6.50
2017-09-09T20:25:45.044Z,5.07
2017-09-09T20:28:11.843Z,5.10
2017-09-09T20:30:38.636Z,4.07
2017-09-09T20:33:05.439Z,9.07
2017-09-09T20:35:32.202Z,6.90
2017-09-09T20:37:59.086Z,4.47
2017-09-09T20:40:25.823Z,6.60
2017-09-09T20:42:52.602Z,5.43
2017-09-09T20:45:19.406Z,8.07
2017-09-09T20:47:46.173Z,7.77
2017-09-09T20:50:12.936Z,8.67
2017-09-09T20:52:39.765Z,7.53
2017-09-09T20:55:06.558Z,5.70
2017-09-09T20:57:33.350Z,7.00
2017-09-09T21:00:00.176Z,5.17
2017-09-09T21:02:26.939Z,7.73
2017-09-09T21:04:53.746Z,6.60
2017-09-09T21:07:20.522Z,5.27
2017-09-09T21:09:47.338Z,6.53
2017-09-09T21:12:14.093Z,7.40
2017-09-09T21:14:40.902Z,6.10
2017-09-09T21:17:07.666Z,5.30
2017-09-09T21:19:34.435Z,5.93
2017-09-09T21:22:01.214Z,6.13
2017-09-09T21:24:28.011Z,5.60
2017-09-09T21:26:54.800Z,5.60
2017-09-09T21:29:21.580Z,6.00
2017-09-09T21:31:48.355Z,5.80
2017-09-09T21:34:15.096Z,6.20
2017-09-09T21:36:41.884Z,5.80
2017-09-09T21:39:08.642Z,6.83
2017-09-09T21:41:35.379Z,5.27
2017-09-09T21:44:02.180Z,7.67
2017-09-09T21:46:29.008Z,5.10
2017-09-09T21:48:55.751Z,5.67
2017-09-09T21:51:22.557Z,4.77
2017-09-09T21:53:49.298Z,5.00
2017-09-09T21:56:16.037Z,8.03
2017-09-09T21:58:42.842Z,4.80
2017-09-09T22:01:09.592Z,5.60
2017-09-09T22:03:36.331Z,6.40
2017-09-09T22:06:03.112Z,6.20
2017-09-09T22:08:29.871Z,5.70
2017-09-09T22:10:56.617Z,7.60
2017-09-09T22:13:23.396Z,5.17
2017-09-09T22:15:50.135Z,7.60
2017-09-09T22:18:16.906Z,7.43
2017-09-09T22:20:43.680Z,6.90
2017-09-09T22:23:10.442Z,7.00
2017-09-09T22:25:37.197Z,7.40
2017-09-09T22:28:04.012Z,8.13
2017-09-09T22:30:30.764Z,8.47
2017-09-09T22:32:57.500Z,9.53
2017-09-09T22:35:24.297Z,10.33
2017-09-09T22:37:51.054Z,10.63
2017-09-09T22:40:17.799Z,10.43
2017-09-09T22:42:44.578Z,9.07
2017-09-09T22:45:11.343Z,12.10
2017-09-09T22:47:38.095Z,8.97
2017-09-09T22:50:04.879Z,9.97
2017-09-09T22:52:31.616Z,8.53
2017-09-09T22:54:58.373Z,9.63
2017-09-09T22:57:25.181Z,16.70
2017-09-09T22:59:51.947Z,9.70
2017-09-09T23:02:18.701Z,9.80
2017-09-09T23:04:45.482Z,10.00
2017-09-09T23:07:12.224Z,10.07
2017-09-09T23:09:38.986Z,14.93
2017-09-09T23:12:05.769Z,8.83
2017-09-09T23:14:32.524Z,15.83
2017-09-09T23:16:59.268Z,10.57
2017-09-09T23:19:26.167Z,8.97
2017-09-09T23:21:52.938Z,9.53
2017-09-09T23:24:19.718Z,11.30
2017-09-09T23:26:46.516Z,14.07
2017-09-09T23:29:13.269Z,11.50
2017-09-09T23:31:40.018Z,12.10
2017-09-09T23:34:06.816Z,11.37
2017-09-09T23:36:33.607Z,8.80
2017-09-09T23:39:00.371Z,15.13
2017-09-09T23:41:27.230Z,10.80
2017-09-09T23:43:53.983Z,12.10
2017-09-09T23:46:20.762Z,13.60
2017-09-09T23:48:47.539Z,10.37
2017-09-09T23:51:14.318Z,12.10
2017-09-09T23:53:41.061Z,12.20
2017-09-09T23:56:07.870Z,11.90
2017-09-09T23:58:34.630Z,14.90
